sensor_id;sensor_type;location;lat;lon;timestamp;pressure;altitude;pressure_sealevel;temperature;humidity
71567;BME280;59403;47.456;19.120;2024-02-26T00:01:32;99508.50;;;8.90;100.00
71567;BME280;59403;47.456;19.120;2024-02-26T00:03:59;99497.44;;;8.87;100.00
71567;BME280;59403;47.456;19.120;2024-02-26T00:06:27;99502.56;;;8.88;100.00
71567;BME280;59403;47.456;19.120;2024-02-26T00:08:55;99501.88;;;8.86;100.00
71567;BME280;59403;47.456;19.120;2024-02-26T00:11:22;99499.25;;;8.86;100.00
71567;BME280;59403;47.456;19.120;2024-02-26T00:13:49;99497.44;;;8.87;100.00
71567;BME280;59403;47.456;19.120;2024-02-26T00:16:15;99496.59;;;8.86;100.00
71567;BME280;59403;47.456;19.120;2024-02-26T00:18:42;99493.16;;;8.86;100.00
71567;BME280;59403;47.456;19.120;2024-02-26T00:21:08;99480.78;;;8.86;100.00
71567;BME280;59403;47.456;19.120;2024-02-26T00:23:35;99478.13;;;8.86;100.00
71567;BME280;59403;47.456;19.120;2024-02-26T00:26:03;99473.69;;;8.87;100.00
71567;BME280;59403;47.456;19.120;2024-02-26T00:28:30;99476.31;;;8.87;100.00
71567;BME280;59403;47.456;19.120;2024-02-26T00:30:56;99476.50;;;8.85;100.00
71567;BME280;59403;47.456;19.120;2024-02-26T00:33:23;99477.31;;;8.86;100.00
71567;BME280;59403;47.456;19.120;2024-02-26T00:35:49;99473.03;;;8.85;100.00
71567;BME280;59403;47.456;19.120;2024-02-26T00:38:16;99476.66;;;8.84;100.00
71567;BME280;59403;47.456;19.120;2024-02-26T00:40:43;99472.34;;;8.83;100.00
71567;BME280;59403;47.456;19.120;2024-02-26T00:43:11;99477.63;;;8.83;100.00
71567;BME280;59403;47.456;19.120;2024-02-26T00:45:37;99473.53;;;8.80;100.00
71567;BME280;59403;47.456;19.120;2024-02-26T00:48:05;99474.50;;;8.79;100.00
71567;BME280;59403;47.456;19.120;2024-02-26T00:50:32;99468.44;;;8.79;100.00
71567;BME280;59403;47.456;19.120;2024-02-26T00:52:59;99474.50;;;8.79;100.00
71567;BME280;59403;47.456;19.120;2024-02-26T00:55:25;99472.69;;;8.80;100.00
71567;BME280;59403;47.456;19.120;2024-02-26T00:57:52;99464.78;;;8.80;100.00
71567;BME280;59403;47.456;19.120;2024-02-26T01:00:20;99464.97;;;8.78;100.00
71567;BME280;59403;47.456;19.120;2024-02-26T01:02:47;99458.84;;;8.78;100.00
71567;BME280;59403;47.456;19.120;2024-02-26T01:05:14;99454.41;;;8.78;100.00
71567;BME280;59403;47.456;19.120;2024-02-26T01:07:42;99450.94;;;8.78;100.00
71567;BME280;59403;47.456;19.120;2024-02-26T01:10:09;99447.47;;;8.77;100.00
71567;BME280;59403;47.456;19.120;2024-02-26T01:12:36;99445.34;;;8.73;100.00
71567;BME280;59403;47.456;19.120;2024-02-26T01:15:03;99451.94;;;8.77;100.00
71567;BME280;59403;47.456;19.120;2024-02-26T01:17:31;99451.09;;;8.76;100.00
71567;BME280;59403;47.456;19.120;2024-02-26T01:19:58;99450.44;;;8.74;100.00
71567;BME280;59403;47.456;19.120;2024-02-26T01:22:25;99454.91;;;8.74;100.00
71567;BME280;59403;47.456;19.120;2024-02-26T01:24:51;99454.75;;;8.75;100.00
71567;BME280;59403;47.456;19.120;2024-02-26T01:27:18;99450.44;;;8.74;100.00
71567;BME280;59403;47.456;19.120;2024-02-26T01:29:45;99443.53;;;8.73;100.00
71567;BME280;59403;47.456;19.120;2024-02-26T01:32:11;99437.09;;;8.68;100.00
71567;BME280;59403;47.456;19.120;2024-02-26T01:34:39;99440.22;;;8.71;100.00
71567;BME280;59403;47.456;19.120;2024-02-26T01:37:06;99439.22;;;8.72;100.00
71567;BME280;59403;47.456;19.120;2024-02-26T01:39:33;99436.59;;;8.72;100.00
71567;BME280;59403;47.456;19.120;2024-02-26T01:41:59;99440.06;;;8.73;100.00
71567;BME280;59403;47.456;19.120;2024-02-26T01:44:26;99429.66;;;8.71;100.00
71567;BME280;59403;47.456;19.120;2024-02-26T01:46:53;99430.66;;;8.70;100.00
71567;BME280;59403;47.456;19.120;2024-02-26T01:49:20;99435.94;;;8.70;100.00
71567;BME280;59403;47.456;19.120;2024-02-26T01:51:48;99430.81;;;8.69;100.00
71567;BME280;59403;47.456;19.120;2024-02-26T01:54:15;99431.81;;;8.68;100.00
71567;BME280;59403;47.456;19.120;2024-02-26T01:56:42;99426.53;;;8.68;100.00
71567;BME280;59403;47.456;19.120;2024-02-26T01:59:09;99423.91;;;8.68;100.00
71567;BME280;59403;47.456;19.120;2024-02-26T02:04:12;99430.81;;;8.69;100.00
71567;BME280;59403;47.456;19.120;2024-02-26T02:06:41;99429.00;;;8.69;100.00
71567;BME280;59403;47.456;19.120;2024-02-26T02:09:11;99422.91;;;8.69;100.00
71567;BME280;59403;47.456;19.120;2024-02-26T02:11:38;99424.72;;;8.68;100.00
71567;BME280;59403;47.456;19.120;2024-02-26T02:14:04;99425.03;;;8.65;100.00
71567;BME280;59403;47.456;19.120;2024-02-26T02:16:31;99429.34;;;8.66;100.00
71567;BME280;59403;47.456;19.120;2024-02-26T02:18:58;99431.81;;;8.68;100.00
71567;BME280;59403;47.456;19.120;2024-02-26T02:21:26;99437.09;;;8.68;100.00
71567;BME280;59403;47.456;19.120;2024-02-26T02:23:53;99444.00;;;8.69;100.00
71567;BME280;59403;47.456;19.120;2024-02-26T02:26:20;99435.13;;;8.70;100.00
71567;BME280;59403;47.456;19.120;2024-02-26T02:28:48;99434.28;;;8.69;100.00
71567;BME280;59403;47.456;19.120;2024-02-26T02:31:15;99428.34;;;8.67;100.00
71567;BME280;59403;47.456;19.120;2024-02-26T02:33:42;99419.63;;;8.67;100.00
71567;BME280;59403;47.456;19.120;2024-02-26T02:36:09;99424.06;;;8.66;100.00
71567;BME280;59403;47.456;19.120;2024-02-26T02:38:39;99421.25;;;8.68;100.00
71567;BME280;59403;47.456;19.120;2024-02-26T02:41:14;99414.50;;;8.65;100.00
71567;BME280;59403;47.456;19.120;2024-02-26T02:43:41;99428.69;;;8.64;100.00
71567;BME280;59403;47.456;19.120;2024-02-26T02:46:07;99426.88;;;8.65;100.00
71567;BME280;59403;47.456;19.120;2024-02-26T02:48:34;99422.75;;;8.62;100.00
71567;BME280;59403;47.456;19.120;2024-02-26T02:51:00;99435.94;;;8.62;100.00
71567;BME280;59403;47.456;19.120;2024-02-26T02:53:27;99436.13;;;8.61;100.00
71567;BME280;59403;47.456;19.120;2024-02-26T02:55:55;99437.13;;;8.60;100.00
71567;BME280;59403;47.456;19.120;2024-02-26T02:58:22;99439.09;;;8.58;100.00
71567;BME280;59403;47.456;19.120;2024-02-26T03:00:48;99423.44;;;8.56;100.00
71567;BME280;59403;47.456;19.120;2024-02-26T03:03:15;99428.72;;;8.56;100.00
71567;BME280;59403;47.456;19.120;2024-02-26T03:05:42;99424.41;;;8.55;100.00
71567;BME280;59403;47.456;19.120;2024-02-26T03:08:08;99422.78;;;8.54;100.00
71567;BME280;59403;47.456;19.120;2024-02-26T03:10:35;99428.22;;;8.53;100.00
71567;BME280;59403;47.456;19.120;2024-02-26T03:13:04;99430.22;;;8.51;100.00
71567;BME280;59403;47.456;19.120;2024-02-26T03:15:30;99430.37;;;8.49;100.00
71567;BME280;59403;47.456;19.120;2024-02-26T03:17:57;99434.00;;;8.48;100.00
71567;BME280;59403;47.456;19.120;2024-02-26T03:20:24;99436.78;;;8.47;100.00
71567;BME280;59403;47.456;19.120;2024-02-26T03:22:50;99424.78;;;8.44;100.00
71567;BME280;59403;47.456;19.120;2024-02-26T03:25:17;99425.75;;;8.43;100.00
71567;BME280;59403;47.456;19.120;2024-02-26T03:27:45;99419.00;;;8.41;100.00
71567;BME280;59403;47.456;19.120;2024-02-26T03:30:13;99420.16;;;8.38;100.00
71567;BME280;59403;47.456;19.120;2024-02-26T03:32:40;99418.53;;;8.37;100.00
71567;BME280;59403;47.456;19.120;2024-02-26T03:35:07;99420.31;;;8.37;100.00
71567;BME280;59403;47.456;19.120;2024-02-26T03:37:34;99419.31;;;8.38;100.00
71567;BME280;59403;47.456;19.120;2024-02-26T03:40:01;99415.06;;;8.37;100.00
71567;BME280;59403;47.456;19.120;2024-02-26T03:42:28;99412.75;;;8.34;100.00
71567;BME280;59403;47.456;19.120;2024-02-26T03:44:55;99424.28;;;8.33;100.00
71567;BME280;59403;47.456;19.120;2024-02-26T03:47:23;99420.97;;;8.31;100.00
71567;BME280;59403;47.456;19.120;2024-02-26T03:49:49;99419.34;;;8.30;100.00
71567;BME280;59403;47.456;19.120;2024-02-26T03:52:16;99406.50;;;8.27;100.00
71567;BME280;59403;47.456;19.120;2024-02-26T03:54:42;99401.84;;;8.21;100.00
71567;BME280;59403;47.456;19.120;2024-02-26T03:57:09;99402.50;;;8.23;100.00
71567;BME280;59403;47.456;19.120;2024-02-26T03:59:36;99413.06;;;8.23;100.00
71567;BME280;59403;47.456;19.120;2024-02-26T04:02:03;99419.31;;;8.22;100.00
71567;BME280;59403;47.456;19.120;2024-02-26T04:04:33;99408.91;;;8.20;100.00
71567;BME280;59403;47.456;19.120;2024-02-26T04:07:00;99406.44;;;8.19;100.00
71567;BME280;59403;47.456;19.120;2024-02-26T04:09:27;99412.38;;;8.21;100.00
71567;BME280;59403;47.456;19.120;2024-02-26T04:11:53;99421.13;;;8.21;100.00
71567;BME280;59403;47.456;19.120;2024-02-26T04:14:20;99411.56;;;8.20;100.00
71567;BME280;59403;47.456;19.120;2024-02-26T04:16:46;99415.38;;;8.18;100.00
71567;BME280;59403;47.456;19.120;2024-02-26T04:19:16;99410.75;;;8.20;100.00
71567;BME280;59403;47.456;19.120;2024-02-26T04:21:45;99401.84;;;8.21;100.00
71567;BME280;59403;47.456;19.120;2024-02-26T04:24:12;99394.75;;;8.21;100.00
71567;BME280;59403;47.456;19.120;2024-02-26T04:26:39;99401.00;;;8.20;100.00
71567;BME280;59403;47.456;19.120;2024-02-26T04:29:05;99397.41;;;8.21;100.00
71567;BME280;59403;47.456;19.120;2024-02-26T04:31:32;99399.87;;;8.23;100.00
71567;BME280;59403;47.456;19.120;2024-02-26T04:33:59;99402.50;;;8.23;100.00
71567;BME280;59403;47.456;19.120;2024-02-26T04:36:25;99400.38;;;8.26;100.00
71567;BME280;59403;47.456;19.120;2024-02-26T04:38:53;99407.47;;;8.26;100.00
71567;BME280;59403;47.456;19.120;2024-02-26T04:41:21;99397.91;;;8.25;100.00
71567;BME280;59403;47.456;19.120;2024-02-26T04:43:47;99396.41;;;8.22;100.00
71567;BME280;59403;47.456;19.120;2024-02-26T04:46:14;99408.47;;;8.25;100.00
71567;BME280;59403;47.456;19.120;2024-02-26T04:48:40;99404.16;;;8.24;100.00
71567;BME280;59403;47.456;19.120;2024-02-26T04:51:08;99404.16;;;8.24;100.00
71567;BME280;59403;47.456;19.120;2024-02-26T04:53:34;99396.25;;;8.24;100.00
71567;BME280;59403;47.456;19.120;2024-02-26T04:56:03;99402.50;;;8.23;100.00
71567;BME280;59403;47.456;19.120;2024-02-26T04:58:29;99392.94;;;8.22;100.00
71567;BME280;59403;47.456;19.120;2024-02-26T05:00:56;99394.75;;;8.21;100.00
71567;BME280;59403;47.456;19.120;2024-02-26T05:03:22;99392.28;;;8.20;100.00
71567;BME280;59403;47.456;19.120;2024-02-26T05:05:49;99386.00;;;8.21;100.00
71567;BME280;59403;47.456;19.120;2024-02-26T05:08:16;99384.03;;;8.23;100.00
71567;BME280;59403;47.456;19.120;2024-02-26T05:10:44;99384.88;;;8.23;100.00
71567;BME280;59403;47.456;19.120;2024-02-26T05:13:12;99394.44;;;8.24;100.00
71567;BME280;59403;47.456;19.120;2024-02-26T05:15:40;99390.16;;;8.23;100.00
71567;BME280;59403;47.456;19.120;2024-02-26T05:18:07;99391.13;;;8.22;100.00
71567;BME280;59403;47.456;19.120;2024-02-26T05:20:34;99387.38;;;8.25;100.00
71567;BME280;59403;47.456;19.120;2024-02-26T05:23:01;99394.09;;;8.27;100.00
71567;BME280;59403;47.456;19.120;2024-02-26T05:25:29;99390.50;;;8.28;100.00
71567;BME280;59403;47.456;19.120;2024-02-26T05:27:55;99387.88;;;8.28;100.00
71567;BME280;59403;47.456;19.120;2024-02-26T05:30:23;99396.75;;;8.27;100.00
71567;BME280;59403;47.456;19.120;2024-02-26T05:32:52;99394.94;;;8.28;100.00
71567;BME280;59403;47.456;19.120;2024-02-26T05:35:20;99399.25;;;8.29;100.00
71567;BME280;59403;47.456;19.120;2024-02-26T05:37:46;99390.50;;;8.28;100.00
71567;BME280;59403;47.456;19.120;2024-02-26T05:40:14;99393.81;;;8.30;100.00
71567;BME280;59403;47.456;19.120;2024-02-26T05:42:39;99391.16;;;8.30;100.00
71567;BME280;59403;47.456;19.120;2024-02-26T05:45:07;99389.31;;;8.31;100.00
71567;BME280;59403;47.456;19.120;2024-02-26T05:47:35;99391.16;;;8.30;100.00
71567;BME280;59403;47.456;19.120;2024-02-26T05:50:08;99388.53;;;8.30;100.00
71567;BME280;59403;47.456;19.120;2024-02-26T05:52:36;99384.53;;;8.34;100.00
71567;BME280;59403;47.456;19.120;2024-02-26T05:55:03;99390.66;;;8.35;100.00
71567;BME280;59403;47.456;19.120;2024-02-26T05:57:30;99394.13;;;8.35;100.00
71567;BME280;59403;47.456;19.120;2024-02-26T05:59:57;99393.94;;;8.37;100.00
71567;BME280;59403;47.456;19.120;2024-02-26T06:02:26;99389.34;;;8.39;100.00
71567;BME280;59403;47.456;19.120;2024-02-26T06:04:56;99394.25;;;8.42;100.00
71567;BME280;59403;47.456;19.120;2024-02-26T06:07:23;99396.72;;;8.43;100.00
71567;BME280;59403;47.456;19.120;2024-02-26T06:09:49;99393.75;;;8.46;100.00
71567;BME280;59403;47.456;19.120;2024-02-26T06:12:16;99393.44;;;8.49;100.00
71567;BME280;59403;47.456;19.120;2024-02-26T06:14:43;99397.53;;;8.52;100.00
71567;BME280;59403;47.456;19.120;2024-02-26T06:17:09;99401.66;;;8.54;100.00
71567;BME280;59403;47.456;19.120;2024-02-26T06:19:36;99405.78;;;8.57;100.00
71567;BME280;59403;47.456;19.120;2024-02-26T06:22:04;99408.22;;;8.58;100.00
71567;BME280;59403;47.456;19.120;2024-02-26T06:24:31;99415.84;;;8.61;100.00
71567;BME280;59403;47.456;19.120;2024-02-26T06:26:57;99414.84;;;8.62;100.00
71567;BME280;59403;47.456;19.120;2024-02-26T06:29:24;99416.50;;;8.63;100.00
71567;BME280;59403;47.456;19.120;2024-02-26T06:31:51;99418.78;;;8.66;100.00
71567;BME280;59403;47.456;19.120;2024-02-26T06:34:17;99420.44;;;8.67;100.00
71567;BME280;59403;47.456;19.120;2024-02-26T06:36:46;99421.25;;;8.68;100.00
71567;BME280;59403;47.456;19.120;2024-02-26T06:39:14;99420.91;;;8.71;100.00
71567;BME280;59403;47.456;19.120;2024-02-26T06:41:43;99416.28;;;8.73;100.00
71567;BME280;59403;47.456;19.120;2024-02-26T06:44:12;99424.69;;;8.76;100.00
71567;BME280;59403;47.456;19.120;2024-02-26T06:46:42;99429.63;;;8.79;100.00
71567;BME280;59403;47.456;19.120;2024-02-26T06:49:08;99427.47;;;8.83;100.00
71567;BME280;59403;47.456;19.120;2024-02-26T06:51:35;99427.16;;;8.86;100.00
71567;BME280;59403;47.456;19.120;2024-02-26T06:54:02;99422.37;;;8.89;100.00
71567;BME280;59403;47.456;19.120;2024-02-26T06:56:30;99428.28;;;8.91;100.00
71567;BME280;59403;47.456;19.120;2024-02-26T06:58:56;99413.75;;;8.95;100.00
71567;BME280;59403;47.456;19.120;2024-02-26T07:01:23;99417.06;;;8.97;100.00
71567;BME280;59403;47.456;19.120;2024-02-26T07:03:50;99421.31;;;8.98;100.00
71567;BME280;59403;47.456;19.120;2024-02-26T07:06:16;99420.81;;;9.03;100.00
71567;BME280;59403;47.456;19.120;2024-02-26T07:08:43;99419.81;;;9.04;100.00
71567;BME280;59403;47.456;19.120;2024-02-26T07:11:10;99425.41;;;9.09;100.00
71567;BME280;59403;47.456;19.120;2024-02-26T07:13:38;99423.91;;;9.14;100.00
71567;BME280;59403;47.456;19.120;2024-02-26T07:16:05;99420.13;;;9.17;100.00
71567;BME280;59403;47.456;19.120;2024-02-26T07:18:32;99426.06;;;9.19;100.00
71567;BME280;59403;47.456;19.120;2024-02-26T07:21:01;99423.53;;;9.26;100.00
71567;BME280;59403;47.456;19.120;2024-02-26T07:23:28;99427.16;;;9.33;100.00
71567;BME280;59403;47.456;19.120;2024-02-26T07:25:54;99427.44;;;9.38;100.00
71567;BME280;59403;47.456;19.120;2024-02-26T07:28:21;99431.22;;;9.43;100.00
71567;BME280;59403;47.456;19.120;2024-02-26T07:30:49;99429.37;;;9.44;100.00
71567;BME280;59403;47.456;19.120;2024-02-26T07:33:15;99429.37;;;9.44;100.00
71567;BME280;59403;47.456;19.120;2024-02-26T07:35:42;99439.44;;;9.48;100.00
71567;BME280;59403;47.456;19.120;2024-02-26T07:38:09;99440.41;;;9.55;100.00
71567;BME280;59403;47.456;19.120;2024-02-26T07:40:35;99441.84;;;9.58;100.00
71567;BME280;59403;47.456;19.120;2024-02-26T07:43:01;99440.34;;;9.63;100.00
71567;BME280;59403;47.456;19.120;2024-02-26T07:45:28;99447.13;;;9.66;100.00
71567;BME280;59403;47.456;19.120;2024-02-26T07:47:56;99448.75;;;9.67;100.00
71567;BME280;59403;47.456;19.120;2024-02-26T07:50:22;99444.28;;;9.67;100.00
71567;BME280;59403;47.456;19.120;2024-02-26T07:52:49;99447.06;;;9.74;100.00
71567;BME280;59403;47.456;19.120;2024-02-26T07:55:18;99446.88;;;9.75;100.00
71567;BME280;59403;47.456;19.120;2024-02-26T07:57:45;99448.38;;;9.78;100.00
71567;BME280;59403;47.456;19.120;2024-02-26T08:00:13;99453.13;;;9.82;100.00
71567;BME280;59403;47.456;19.120;2024-02-26T08:02:42;99458.88;;;9.86;100.00
71567;BME280;59403;47.456;19.120;2024-02-26T08:05:10;99465.47;;;9.90;100.00
71567;BME280;59403;47.456;19.120;2024-02-26T08:07:36;99461.94;;;9.97;100.00
71567;BME280;59403;47.456;19.120;2024-02-26T08:10:03;99457.75;;;10.03;100.00
71567;BME280;59403;47.456;19.120;2024-02-26T08:12:30;99462.31;;;10.17;100.00
71567;BME280;59403;47.456;19.120;2024-02-26T08:14:57;99465.50;;;10.35;100.00
71567;BME280;59403;47.456;19.120;2024-02-26T08:17:24;99465.31;;;10.37;100.00
71567;BME280;59403;47.456;19.120;2024-02-26T08:19:51;99471.25;;;10.39;100.00
71567;BME280;59403;47.456;19.120;2024-02-26T08:22:19;99463.41;;;10.45;100.00
71567;BME280;59403;47.456;19.120;2024-02-26T08:24:46;99471.19;;;10.47;100.00
71567;BME280;59403;47.456;19.120;2024-02-26T08:27:12;99472.12;;;10.54;100.00
71567;BME280;59403;47.456;19.120;2024-02-26T08:29:39;99461.44;;;10.62;100.00
71567;BME280;59403;47.456;19.120;2024-02-26T08:32:06;99464.41;;;10.67;100.00
71567;BME280;59403;47.456;19.120;2024-02-26T08:34:33;99467.66;;;10.69;100.00
71567;BME280;59403;47.456;19.120;2024-02-26T08:36:59;99462.81;;;10.72;100.00
71567;BME280;59403;47.456;19.120;2024-02-26T08:39:27;99461.09;;;10.65;100.00
71567;BME280;59403;47.456;19.120;2024-02-26T08:41:54;99458.28;;;10.66;100.00
71567;BME280;59403;47.456;19.120;2024-02-26T08:44:21;99467.41;;;10.78;100.00
71567;BME280;59403;47.456;19.120;2024-02-26T08:46:48;99464.41;;;10.67;100.00
71567;BME280;59403;47.456;19.120;2024-02-26T08:49:16;99478.34;;;10.61;100.00
71567;BME280;59403;47.456;19.120;2024-02-26T08:51:42;99474.69;;;10.62;100.00
71567;BME280;59403;47.456;19.120;2024-02-26T08:54:09;99472.56;;;10.57;100.00
71567;BME280;59403;47.456;19.120;2024-02-26T08:56:37;99470.13;;;10.56;100.00
71567;BME280;59403;47.456;19.120;2024-02-26T08:59:04;99472.94;;;10.54;100.00
71567;BME280;59403;47.456;19.120;2024-02-26T09:01:31;99474.22;;;10.58;100.00
71567;BME280;59403;47.456;19.120;2024-02-26T09:03:58;99467.66;;;10.54;100.00
71567;BME280;59403;47.456;19.120;2024-02-26T09:06:24;99464.34;;;10.52;100.00
71567;BME280;59403;47.456;19.120;2024-02-26T09:08:51;99472.94;;;10.54;100.00
71567;BME280;59403;47.456;19.120;2024-02-26T09:11:18;99478.06;;;10.56;100.00
71567;BME280;59403;47.456;19.120;2024-02-26T09:13:46;99475.41;;;10.56;100.00
71567;BME280;59403;47.456;19.120;2024-02-26T09:16:13;99486.00;;;10.56;100.00
71567;BME280;59403;47.456;19.120;2024-02-26T09:18:39;99489.94;;;10.60;100.00
71567;BME280;59403;47.456;19.120;2024-02-26T09:21:06;99485.13;;;10.63;100.00
71567;BME280;59403;47.456;19.120;2024-02-26T09:23:33;99481.53;;;10.71;100.00
71567;BME280;59403;47.456;19.120;2024-02-26T09:26:02;99483.13;;;10.80;100.00
71567;BME280;59403;47.456;19.120;2024-02-26T09:28:31;99489.16;;;10.88;100.00
71567;BME280;59403;47.456;19.120;2024-02-26T09:31:04;99488.91;;;10.98;100.00
71567;BME280;59403;47.456;19.120;2024-02-26T09:33:31;99488.53;;;11.01;100.00
71567;BME280;59403;47.456;19.120;2024-02-26T09:35:58;99484.88;;;11.02;100.00
71567;BME280;59403;47.456;19.120;2024-02-26T09:38:25;99482.87;;;11.04;100.00
71567;BME280;59403;47.456;19.120;2024-02-26T09:40:52;99484.06;;;11.16;100.00
71567;BME280;59403;47.456;19.120;2024-02-26T09:43:21;99490.84;;;11.18;100.00
71567;BME280;59403;47.456;19.120;2024-02-26T09:45:49;99497.41;;;11.22;100.00
71567;BME280;59403;47.456;19.120;2024-02-26T09:48:18;99499.31;;;11.28;100.00
71567;BME280;59403;47.456;19.120;2024-02-26T09:50:45;99498.59;;;11.34;100.00
71567;BME280;59403;47.456;19.120;2024-02-26T09:53:12;99492.38;;;11.42;100.00
71567;BME280;59403;47.456;19.120;2024-02-26T09:55:40;99493.66;;;11.46;100.00
71567;BME280;59403;47.456;19.120;2024-02-26T09:58:07;99495.41;;;11.39;100.00
71567;BME280;59403;47.456;19.120;2024-02-26T10:00:37;99497.28;;;11.45;100.00
71567;BME280;59403;47.456;19.120;2024-02-26T10:03:05;99501.41;;;11.48;100.00
71567;BME280;59403;47.456;19.120;2024-02-26T10:05:34;99502.69;;;11.52;100.00
71567;BME280;59403;47.456;19.120;2024-02-26T10:08:01;99504.53;;;11.51;100.00
71567;BME280;59403;47.456;19.120;2024-02-26T10:10:29;99498.31;;;11.59;100.00
71567;BME280;59403;47.456;19.120;2024-02-26T10:12:56;99490.53;;;11.57;100.00
71567;BME280;59403;47.456;19.120;2024-02-26T10:15:23;99496.56;;;11.51;100.00
71567;BME280;59403;47.456;19.120;2024-02-26T10:17:51;99497.22;;;11.53;100.00
71567;BME280;59403;47.456;19.120;2024-02-26T10:20:18;99500.84;;;11.52;100.00
71567;BME280;59403;47.456;19.120;2024-02-26T10:22:50;99490.87;;;11.54;100.00
71567;BME280;59403;47.456;19.120;2024-02-26T10:25:17;99492.63;;;11.62;100.00
71567;BME280;59403;47.456;19.120;2024-02-26T10:27:45;99484.22;;;11.73;100.00
71567;BME280;59403;47.456;19.120;2024-02-26T10:30:19;99484.09;;;11.81;100.00
71567;BME280;59403;47.456;19.120;2024-02-26T10:32:46;99484.81;;;11.89;100.00
71567;BME280;59403;47.456;19.120;2024-02-26T10:35:13;99483.63;;;12.13;100.00
71567;BME280;59403;47.456;19.120;2024-02-26T10:37:40;99481.09;;;12.47;100.00
71567;BME280;59403;47.456;19.120;2024-02-26T10:40:11;99483.16;;;12.73;100.00
71567;BME280;59403;47.456;19.120;2024-02-26T10:42:38;99487.94;;;12.84;100.00
71567;BME280;59403;47.456;19.120;2024-02-26T10:45:05;99483.19;;;12.79;100.00
71567;BME280;59403;47.456;19.120;2024-02-26T10:47:32;99481.88;;;12.96;100.00
71567;BME280;59403;47.456;19.120;2024-02-26T10:49:59;99477.97;;;13.13;100.00
71567;BME280;59403;47.456;19.120;2024-02-26T10:52:31;99477.34;;;13.18;100.00
71567;BME280;59403;47.456;19.120;2024-02-26T10:55:00;99472.88;;;13.18;100.00
71567;BME280;59403;47.456;19.120;2024-02-26T10:57:32;99467.03;;;13.02;100.00
71567;BME280;59403;47.456;19.120;2024-02-26T11:00:00;99462.78;;;13.07;100.00
71567;BME280;59403;47.456;19.120;2024-02-26T11:02:31;99457.84;;;13.04;100.00
71567;BME280;59403;47.456;19.120;2024-02-26T11:05:00;99458.47;;;13.06;100.00
71567;BME280;59403;47.456;19.120;2024-02-26T11:07:26;99464.22;;;13.10;100.00
71567;BME280;59403;47.456;19.120;2024-02-26T11:09:54;99453.19;;;12.85;100.00
71567;BME280;59403;47.456;19.120;2024-02-26T11:12:22;99454.31;;;12.97;100.00
71567;BME280;59403;47.456;19.120;2024-02-26T11:14:51;99449.12;;;13.17;100.00
71567;BME280;59403;47.456;19.120;2024-02-26T11:17:21;99448.34;;;13.23;100.00
71567;BME280;59403;47.456;19.120;2024-02-26T11:19:49;99463.47;;;13.22;100.00
71567;BME280;59403;47.456;19.120;2024-02-26T11:22:16;99458.78;;;13.24;100.00
71567;BME280;59403;47.456;19.120;2024-02-26T11:24:43;99456.75;;;13.26;100.00
71567;BME280;59403;47.456;19.120;2024-02-26T11:27:11;99463.34;;;13.37;100.00
71567;BME280;59403;47.456;19.120;2024-02-26T11:29:41;99461.06;;;13.27;100.00
71567;BME280;59403;47.456;19.120;2024-02-26T11:32:10;99470.28;;;13.38;100.00
71567;BME280;59403;47.456;19.120;2024-02-26T11:34:38;99464.44;;;13.55;100.00
71567;BME280;59403;47.456;19.120;2024-02-26T11:37:11;99468.34;;;13.59;100.00
71567;BME280;59403;47.456;19.120;2024-02-26T11:39:40;99464.09;;;13.65;100.00
71567;BME280;59403;47.456;19.120;2024-02-26T11:42:08;99464.12;;;13.78;100.00
71567;BME280;59403;47.456;19.120;2024-02-26T11:44:36;99460.25;;;13.81;100.00
71567;BME280;59403;47.456;19.120;2024-02-26T11:47:17;99453.94;;;14.01;100.00
71567;BME280;59403;47.456;19.120;2024-02-26T11:49:45;99457.81;;;13.99;100.00
71567;BME280;59403;47.456;19.120;2024-02-26T11:52:13;99460.31;;;14.13;99.52
71567;BME280;59403;47.456;19.120;2024-02-26T11:54:46;99454.78;;;14.08;98.89
71567;BME280;59403;47.456;19.120;2024-02-26T11:57:21;99459.25;;;13.95;97.10
71567;BME280;59403;47.456;19.120;2024-02-26T11:59:48;99463.12;;;13.79;98.18
71567;BME280;59403;47.456;19.120;2024-02-26T12:02:39;99469.00;;;13.68;97.02
71567;BME280;59403;47.456;19.120;2024-02-26T12:05:07;99465.91;;;13.64;98.15
71567;BME280;59403;47.456;19.120;2024-02-26T12:07:34;99465.50;;;13.61;98.95
71567;BME280;59403;47.456;19.120;2024-02-26T12:10:15;99463.88;;;13.60;99.11
71567;BME280;59403;47.456;19.120;2024-02-26T12:12:42;99470.03;;;13.67;100.00
71567;BME280;59403;47.456;19.120;2024-02-26T12:15:09;99465.09;;;13.64;99.79
71567;BME280;59403;47.456;19.120;2024-02-26T12:17:40;99454.06;;;13.67;100.00
71567;BME280;59403;47.456;19.120;2024-02-26T12:20:11;99467.37;;;13.67;97.89
71567;BME280;59403;47.456;19.120;2024-02-26T12:22:39;99457.09;;;13.64;97.75
71567;BME280;59403;47.456;19.120;2024-02-26T12:25:09;99457.38;;;13.76;97.24
71567;BME280;59403;47.456;19.120;2024-02-26T12:27:35;99457.59;;;13.81;97.92
71567;BME280;59403;47.456;19.120;2024-02-26T12:30:03;99464.53;;;13.82;98.18
71567;BME280;59403;47.456;19.120;2024-02-26T12:32:30;99451.03;;;13.83;98.27
71567;BME280;59403;47.456;19.120;2024-02-26T12:34:58;99453.50;;;13.85;98.15
71567;BME280;59403;47.456;19.120;2024-02-26T12:37:25;99447.38;;;13.91;97.40
71567;BME280;59403;47.456;19.120;2024-02-26T12:39:52;99451.47;;;13.93;97.71
71567;BME280;59403;47.456;19.120;2024-02-26T12:42:18;99448.19;;;13.91;97.91
71567;BME280;59403;47.456;19.120;2024-02-26T12:44:45;99447.56;;;13.89;100.00
71567;BME280;59403;47.456;19.120;2024-02-26T12:47:12;99446.38;;;13.92;99.50
71567;BME280;59403;47.456;19.120;2024-02-26T12:49:42;99449.41;;;13.95;99.82
71567;BME280;59403;47.456;19.120;2024-02-26T12:52:11;99451.84;;;13.90;97.86